createdAt,value
2018-07-21T00:02:00.315Z,26.00
2018-07-21T00:06:58.593Z,26.00
2018-07-21T00:09:31.622Z,26.00
2018-07-21T00:12:03.618Z,26.00
2018-07-21T00:14:33.051Z,26.00
2018-07-21T00:17:02.434Z,25.90
2018-07-21T00:19:31.910Z,25.80
2018-07-21T00:22:01.386Z,25.90
2018-07-21T00:24:30.774Z,25.80
2018-07-21T00:27:00.293Z,25.80
2018-07-21T00:29:29.718Z,25.80
2018-07-21T00:31:59.431Z,25.80
2018-07-21T00:34:28.874Z,25.80
2018-07-21T00:36:58.346Z,25.80
2018-07-21T00:39:27.862Z,25.80
2018-07-21T00:41:57.358Z,25.70
2018-07-21T00:44:26.907Z,25.70
2018-07-21T00:46:56.410Z,25.80
2018-07-21T00:49:25.868Z,25.80
2018-07-21T00:51:55.314Z,25.80
2018-07-21T00:54:24.695Z,25.80
2018-07-21T00:56:54.140Z,25.80
2018-07-21T00:59:23.606Z,25.70
2018-07-21T01:01:53.025Z,25.70
2018-07-21T01:04:22.486Z,25.70
2018-07-21T01:06:51.899Z,25.70
2018-07-21T01:09:21.323Z,25.60
2018-07-21T01:11:50.746Z,25.60
2018-07-21T01:14:20.202Z,25.60
2018-07-21T01:16:49.789Z,25.60
2018-07-21T01:19:19.208Z,25.60
2018-07-21T01:21:48.732Z,25.60
2018-07-21T01:24:18.175Z,25.60
2018-07-21T01:26:47.666Z,25.60
2018-07-21T01:29:17.107Z,25.60
2018-07-21T01:31:46.531Z,25.60
2018-07-21T01:34:15.961Z,25.50
2018-07-21T01:36:45.412Z,25.50
2018-07-21T01:39:14.851Z,25.50
2018-07-21T01:41:44.318Z,25.50
2018-07-21T01:44:13.828Z,25.50
2018-07-21T01:46:44.634Z,25.50
2018-07-21T01:49:14.124Z,25.50
2018-07-21T01:51:43.560Z,25.50
2018-07-21T01:54:12.950Z,25.50
2018-07-21T01:56:42.445Z,25.50
2018-07-21T01:59:11.885Z,25.50
2018-07-21T02:01:41.348Z,25.50
2018-07-21T02:04:10.798Z,25.50
2018-07-21T02:06:40.212Z,25.40
2018-07-21T02:09:11.015Z,25.50
2018-07-21T02:11:40.687Z,25.40
2018-07-21T02:14:10.091Z,25.40
2018-07-21T02:16:39.523Z,25.40
2018-07-21T02:19:08.976Z,25.40
2018-07-21T02:21:38.442Z,25.40
2018-07-21T02:24:07.962Z,25.40
2018-07-21T02:26:37.405Z,25.40
2018-07-21T02:29:06.844Z,25.40
2018-07-21T02:31:36.289Z,25.40
2018-07-21T02:34:05.722Z,25.40
2018-07-21T02:36:35.171Z,25.40
2018-07-21T02:39:06.577Z,25.40
2018-07-21T02:41:36.068Z,25.30
2018-07-21T02:44:05.463Z,25.40
2018-07-21T02:46:34.875Z,25.40
2018-07-21T02:49:04.285Z,25.30
2018-07-21T02:51:33.856Z,25.30
2018-07-21T02:54:03.403Z,25.40
2018-07-21T02:56:32.917Z,25.30
2018-07-21T02:59:02.383Z,25.20
2018-07-21T03:01:31.860Z,25.30
2018-07-21T03:04:01.276Z,25.20
2018-07-21T03:06:30.747Z,25.20
2018-07-21T03:09:00.218Z,25.20
2018-07-21T03:11:29.694Z,25.30
2018-07-21T03:13:59.142Z,25.30
2018-07-21T03:16:28.598Z,25.30
2018-07-21T03:18:57.982Z,25.20
2018-07-21T03:21:27.422Z,25.20
2018-07-21T03:23:57.047Z,25.20
2018-07-21T03:26:26.516Z,25.20
2018-07-21T03:28:56.006Z,25.20
2018-07-21T03:31:25.657Z,25.10
2018-07-21T03:33:55.058Z,25.20
2018-07-21T03:36:24.474Z,25.10
2018-07-21T03:38:53.927Z,25.10
2018-07-21T03:41:23.348Z,25.10
2018-07-21T03:43:52.766Z,25.10
2018-07-21T03:46:22.178Z,25.10
2018-07-21T03:48:51.606Z,25.10
2018-07-21T03:51:21.067Z,25.00
2018-07-21T03:53:50.580Z,25.00
2018-07-21T03:56:20.065Z,25.00
2018-07-21T03:58:49.457Z,25.10
2018-07-21T04:01:19.373Z,25.00
2018-07-21T04:03:48.855Z,25.00
2018-07-21T04:06:18.656Z,24.90
2018-07-21T04:11:17.123Z,24.90
2018-07-21T04:21:14.665Z,24.90
2018-07-21T04:23:44.279Z,24.90
2018-07-21T04:26:13.684Z,24.90
2018-07-21T04:28:43.137Z,24.90
2018-07-21T04:31:12.681Z,24.90
2018-07-21T04:33:42.384Z,24.80
2018-07-21T04:38:40.951Z,24.90
2018-07-21T04:41:12.534Z,24.90
2018-07-21T04:46:11.058Z,24.90
2018-07-21T04:48:40.600Z,24.90
2018-07-21T04:51:10.286Z,24.90
2018-07-21T04:53:40.130Z,24.90
2018-07-21T04:56:09.674Z,25.00
2018-07-21T05:01:08.286Z,24.90
2018-07-21T05:03:37.812Z,24.90
2018-07-21T05:06:07.375Z,24.90
2018-07-21T05:11:06.474Z,24.90
2018-07-21T05:13:35.938Z,24.90
2018-07-21T05:16:05.541Z,24.90
2018-07-21T05:18:35.048Z,24.80
2018-07-21T05:21:04.590Z,24.90
2018-07-21T05:23:35.160Z,24.80
2018-07-21T05:26:04.686Z,24.90
2018-07-21T05:28:34.107Z,24.90
2018-07-21T05:31:03.580Z,24.80
2018-07-21T05:33:33.179Z,24.80
2018-07-21T05:36:02.583Z,24.90
2018-07-21T05:38:32.065Z,24.80
2018-07-21T05:41:01.485Z,24.80
2018-07-21T05:43:30.970Z,24.80
2018-07-21T05:46:00.378Z,24.80
2018-07-21T05:50:58.884Z,24.80
2018-07-21T05:53:28.256Z,24.80
2018-07-21T05:55:57.707Z,24.80
2018-07-21T05:58:27.132Z,24.80
2018-07-21T06:00:56.561Z,24.70
2018-07-21T06:03:26.037Z,24.70
2018-07-21T06:05:55.487Z,24.70
2018-07-21T06:08:24.966Z,24.70
2018-07-21T06:10:54.396Z,24.80
2018-07-21T06:13:23.876Z,24.80
2018-07-21T06:15:53.373Z,24.90
2018-07-21T06:18:22.787Z,24.90
2018-07-21T06:20:52.246Z,24.90
2018-07-21T06:23:21.754Z,24.90
2018-07-21T06:25:51.315Z,25.00
2018-07-21T06:28:20.757Z,25.00
2018-07-21T06:30:50.200Z,25.10
2018-07-21T06:33:19.608Z,25.10
2018-07-21T06:35:49.047Z,25.10
2018-07-21T06:40:47.394Z,25.10
2018-07-21T06:43:16.888Z,25.10
2018-07-21T06:45:46.306Z,25.00
2018-07-21T06:48:15.697Z,25.00
2018-07-21T06:50:45.174Z,25.00
2018-07-21T06:53:14.595Z,25.10
2018-07-21T06:55:44.008Z,25.00
2018-07-21T06:58:13.432Z,25.10
2018-07-21T07:00:42.868Z,25.20
2018-07-21T07:03:12.266Z,25.20
2018-07-21T07:08:10.573Z,25.10
2018-07-21T07:10:39.979Z,25.20
2018-07-21T07:13:09.453Z,25.20
2018-07-21T07:18:07.757Z,25.20
2018-07-21T07:23:06.111Z,25.30
2018-07-21T07:25:35.742Z,25.30
2018-07-21T07:30:34.138Z,25.40
2018-07-21T07:33:03.642Z,25.40
2018-07-21T07:35:33.130Z,25.40
2018-07-21T07:38:02.593Z,25.40
2018-07-21T07:40:31.996Z,25.50
2018-07-21T07:43:01.538Z,25.50
2018-07-21T07:45:31.120Z,25.50
2018-07-21T07:48:00.543Z,25.50
2018-07-21T07:50:30.034Z,25.60
2018-07-21T07:53:00.075Z,25.60
2018-07-21T07:55:32.889Z,25.60
2018-07-21T07:58:03.941Z,25.60
2018-07-21T08:00:33.548Z,25.60
2018-07-21T08:03:03.547Z,25.60
2018-07-21T08:05:33.258Z,25.60
2018-07-21T08:08:02.696Z,25.60
2018-07-21T08:10:32.092Z,25.70
2018-07-21T08:13:01.590Z,25.60
2018-07-21T08:15:31.174Z,25.60
2018-07-21T08:18:00.648Z,25.50
2018-07-21T08:20:30.119Z,25.50
2018-07-21T08:22:59.512Z,25.50
2018-07-21T08:25:29.046Z,25.60
2018-07-21T08:27:58.508Z,25.70
2018-07-21T08:30:27.977Z,25.70
2018-07-21T08:32:57.503Z,25.70
2018-07-21T08:35:26.918Z,25.70
2018-07-21T08:37:56.336Z,25.80
2018-07-21T08:40:25.818Z,25.80
2018-07-21T08:45:24.101Z,25.80
2018-07-21T08:47:53.579Z,25.90
2018-07-21T08:50:23.083Z,26.00
2018-07-21T08:52:52.503Z,26.10
2018-07-21T08:55:21.977Z,26.10
2018-07-21T08:57:51.423Z,26.10
2018-07-21T09:02:49.675Z,26.10
2018-07-21T09:05:19.060Z,26.10
2018-07-21T09:07:48.499Z,26.20
2018-07-21T09:10:17.980Z,26.30
2018-07-21T09:12:47.362Z,26.30
2018-07-21T09:15:16.773Z,26.40
2018-07-21T09:17:46.205Z,26.40
2018-07-21T09:20:15.735Z,26.40
2018-07-21T09:22:45.170Z,26.50
2018-07-21T09:25:14.673Z,26.60
2018-07-21T09:27:44.231Z,26.60
2018-07-21T09:30:13.778Z,26.60
2018-07-21T09:32:43.312Z,26.60
2018-07-21T09:35:12.783Z,26.60
2018-07-21T09:37:42.466Z,26.60
2018-07-21T09:40:12.963Z,26.70
2018-07-21T09:42:42.544Z,26.70
2018-07-21T09:45:12.652Z,26.80
2018-07-21T09:47:42.082Z,26.90
2018-07-21T09:50:11.867Z,27.10
2018-07-21T09:52:41.355Z,27.30
2018-07-21T09:57:39.787Z,27.50
2018-07-21T10:00:11.618Z,27.60
2018-07-21T10:02:41.124Z,27.70
2018-07-21T10:05:10.534Z,27.70
2018-07-21T10:07:39.936Z,27.80
2018-07-21T10:10:09.467Z,27.90
2018-07-21T10:12:39.032Z,27.90
2018-07-21T10:17:38.488Z,28.10
2018-07-21T10:20:09.131Z,28.10
2018-07-21T10:22:38.569Z,28.20
2018-07-21T10:25:13.033Z,28.30
2018-07-21T10:27:47.439Z,28.40
2018-07-21T10:30:17.289Z,28.30
2018-07-21T10:32:48.592Z,28.40
2018-07-21T10:35:18.150Z,28.40
2018-07-21T10:37:47.593Z,28.40
2018-07-21T10:40:17.218Z,28.50
2018-07-21T10:42:46.649Z,28.50
2018-07-21T10:45:16.201Z,28.60
2018-07-21T10:47:53.147Z,28.70
2018-07-21T10:50:22.626Z,28.80
2018-07-21T10:52:52.095Z,28.90
2018-07-21T10:57:50.777Z,29.00
2018-07-21T11:00:20.327Z,29.10
2018-07-21T11:02:49.854Z,29.10
2018-07-21T11:05:19.341Z,29.20
2018-07-21T11:07:48.990Z,29.30
2018-07-21T11:10:18.494Z,29.30
2018-07-21T11:12:47.893Z,29.30
2018-07-21T11:15:17.473Z,29.40
2018-07-21T11:17:46.947Z,29.30
2018-07-21T11:20:16.418Z,29.40
2018-07-21T11:22:45.848Z,29.40
2018-07-21T11:25:15.276Z,29.30
2018-07-21T11:27:44.766Z,29.20
2018-07-21T11:30:14.200Z,29.00
2018-07-21T11:32:43.695Z,28.90
2018-07-21T11:35:13.104Z,29.00
2018-07-21T11:37:42.604Z,29.10
2018-07-21T11:40:12.072Z,29.10
2018-07-21T11:42:41.639Z,29.20
2018-07-21T11:45:11.086Z,29.20
2018-07-21T11:50:09.385Z,29.00
2018-07-21T11:55:07.801Z,29.00
2018-07-21T11:57:37.310Z,29.10
2018-07-21T12:00:06.813Z,29.10
2018-07-21T12:02:36.254Z,29.10
2018-07-21T12:05:05.782Z,29.00
2018-07-21T12:07:35.252Z,28.80
2018-07-21T12:10:04.974Z,28.80
2018-07-21T12:12:34.370Z,28.80
2018-07-21T12:15:03.949Z,28.70
2018-07-21T12:17:33.430Z,28.70
2018-07-21T12:20:02.835Z,28.60
2018-07-21T12:22:32.249Z,28.50
2018-07-21T12:25:01.703Z,28.50
2018-07-21T12:27:31.194Z,28.60
2018-07-21T12:30:03.568Z,28.50
2018-07-21T12:32:33.067Z,28.50
2018-07-21T12:35:02.514Z,28.40
2018-07-21T12:42:29.760Z,28.40
2018-07-21T12:44:59.241Z,28.30
2018-07-21T12:47:28.747Z,28.30
2018-07-21T12:49:58.263Z,28.20
2018-07-21T12:52:27.675Z,28.20
2018-07-21T12:54:57.045Z,28.10
2018-07-21T12:57:26.563Z,28.10
2018-07-21T12:59:55.993Z,28.00
2018-07-21T13:02:25.819Z,28.00
2018-07-21T13:04:55.207Z,28.00
2018-07-21T13:07:24.626Z,28.00
2018-07-21T13:09:54.122Z,28.00
2018-07-21T13:12:23.604Z,28.00
2018-07-21T13:14:53.092Z,28.00
2018-07-21T13:17:22.514Z,28.00
2018-07-21T13:19:52.026Z,28.10
2018-07-21T13:22:21.383Z,28.10
2018-07-21T13:24:50.947Z,28.20
2018-07-21T13:27:20.343Z,28.20
2018-07-21T13:29:49.798Z,28.30
2018-07-21T13:32:19.200Z,28.30
2018-07-21T13:34:48.616Z,28.30
2018-07-21T13:37:18.024Z,28.20
2018-07-21T13:39:47.461Z,28.30
2018-07-21T13:42:17.022Z,28.10
2018-07-21T13:44:46.509Z,28.10
2018-07-21T13:47:16.064Z,28.10
2018-07-21T13:49:45.546Z,28.10
2018-07-21T13:52:14.983Z,28.00
2018-07-21T13:54:44.617Z,28.00
2018-07-21T13:59:42.965Z,28.00
2018-07-21T14:02:12.419Z,28.00
2018-07-21T14:04:41.884Z,28.10
2018-07-21T14:07:11.465Z,28.00
2018-07-21T14:09:40.863Z,27.90
2018-07-21T14:12:10.418Z,27.90
2018-07-21T14:17:08.738Z,27.80
2018-07-21T14:19:38.192Z,27.80
2018-07-21T14:22:07.674Z,27.80
2018-07-21T14:24:37.101Z,27.80
2018-07-21T14:27:06.587Z,27.80
2018-07-21T14:29:36.057Z,27.80
2018-07-21T14:32:05.552Z,27.80
2018-07-21T14:37:03.847Z,27.70
2018-07-21T14:39:33.242Z,27.70
2018-07-21T14:44:31.597Z,27.60
2018-07-21T14:47:01.075Z,27.50
2018-07-21T14:49:30.538Z,27.60
2018-07-21T14:54:29.041Z,27.60
2018-07-21T14:56:58.517Z,27.50
2018-07-21T14:59:28.075Z,27.50
2018-07-21T15:01:57.509Z,27.40
2018-07-21T15:04:26.964Z,27.40
2018-07-21T15:06:56.427Z,27.40
2018-07-21T15:09:25.864Z,27.40
2018-07-21T15:14:24.130Z,27.40
2018-07-21T15:16:53.558Z,27.40
2018-07-21T15:21:51.845Z,27.30
2018-07-21T15:24:21.292Z,27.30
2018-07-21T15:26:50.697Z,27.30
2018-07-21T15:29:20.439Z,27.20
2018-07-21T15:31:49.882Z,27.30
2018-07-21T15:36:48.253Z,27.30
2018-07-21T15:39:17.747Z,27.30
2018-07-21T15:41:47.238Z,27.30
2018-07-21T15:44:16.697Z,27.20
2018-07-21T15:46:46.195Z,27.20
2018-07-21T15:51:44.521Z,27.20
2018-07-21T15:54:13.907Z,27.20
2018-07-21T15:56:43.534Z,27.20
2018-07-21T15:59:12.933Z,27.20
2018-07-21T16:01:42.369Z,27.20
2018-07-21T16:04:11.965Z,27.20
2018-07-21T16:06:41.398Z,27.30
2018-07-21T16:09:12.038Z,27.30
2018-07-21T16:16:39.865Z,27.20
2018-07-21T16:19:09.276Z,27.20
2018-07-21T16:21:38.682Z,27.20
2018-07-21T16:24:08.120Z,27.20
2018-07-21T16:26:37.603Z,27.20
2018-07-21T16:29:07.031Z,27.20
2018-07-21T16:31:36.525Z,27.10
2018-07-21T16:34:06.705Z,27.20
2018-07-21T16:36:36.116Z,27.20
2018-07-21T16:39:08.604Z,27.20
2018-07-21T16:41:38.020Z,27.20
2018-07-21T16:44:07.487Z,27.20
2018-07-21T16:46:36.993Z,27.20
2018-07-21T16:49:06.409Z,27.20
2018-07-21T16:51:35.973Z,27.30
2018-07-21T16:56:34.207Z,27.20
2018-07-21T16:59:03.739Z,27.10
2018-07-21T17:01:33.128Z,27.10
2018-07-21T17:04:02.563Z,27.20
2018-07-21T17:06:32.105Z,27.10
2018-07-21T17:09:01.517Z,27.10
2018-07-21T17:11:30.925Z,27.10
2018-07-21T17:14:00.336Z,27.10
2018-07-21T17:16:29.798Z,27.10
2018-07-21T17:21:28.320Z,27.00
2018-07-21T17:23:57.734Z,27.00
2018-07-21T17:26:27.183Z,26.90
2018-07-21T17:28:56.573Z,26.90
2018-07-21T17:31:26.027Z,26.80
2018-07-21T17:33:55.674Z,26.80
2018-07-21T17:36:25.158Z,26.80
2018-07-21T17:38:54.657Z,26.80
2018-07-21T17:41:24.079Z,26.80
2018-07-21T17:43:53.607Z,26.80
2018-07-21T17:46:23.027Z,26.80
2018-07-21T17:48:52.651Z,26.70
2018-07-21T17:58:48.905Z,26.80
2018-07-21T18:01:18.379Z,26.80
2018-07-21T18:03:47.902Z,26.80
2018-07-21T18:06:17.306Z,26.80
2018-07-21T18:08:46.727Z,26.80
2018-07-21T18:11:16.186Z,26.70
2018-07-21T18:13:45.696Z,26.70
2018-07-21T18:16:15.102Z,26.70
2018-07-21T18:18:44.516Z,26.70
2018-07-21T18:21:13.963Z,26.70
2018-07-21T18:23:43.536Z,26.60
2018-07-21T18:26:13.021Z,26.70
2018-07-21T18:28:42.422Z,26.60
2018-07-21T18:31:11.834Z,26.60
2018-07-21T18:33:41.203Z,26.60
2018-07-21T18:36:10.615Z,26.60
2018-07-21T18:38:40.216Z,26.60
2018-07-21T18:41:10.134Z,26.60
2018-07-21T18:43:40.393Z,26.50
2018-07-21T18:46:09.811Z,26.50
2018-07-21T18:51:08.256Z,26.50
2018-07-21T18:53:37.627Z,26.50
2018-07-21T18:58:35.986Z,26.50
2018-07-21T19:01:05.391Z,26.50
2018-07-21T19:03:34.825Z,26.50
2018-07-21T19:06:04.368Z,26.40
2018-07-21T19:08:38.844Z,26.40
2018-07-21T19:11:08.332Z,26.40
2018-07-21T19:13:37.715Z,26.40
2018-07-21T19:16:12.061Z,26.30
2018-07-21T19:21:15.423Z,26.30
2018-07-21T19:23:45.524Z,26.30
2018-07-21T19:26:20.000Z,26.30
2018-07-21T19:28:49.463Z,26.30
2018-07-21T19:31:18.954Z,26.30
2018-07-21T19:33:48.435Z,26.20
2018-07-21T19:41:20.601Z,26.30
2018-07-21T19:43:50.030Z,26.20
2018-07-21T19:46:19.590Z,26.20
2018-07-21T19:48:49.142Z,26.30
2018-07-21T19:51:18.585Z,26.30
2018-07-21T19:53:48.002Z,26.30
2018-07-21T19:56:17.467Z,26.30
2018-07-21T20:01:15.720Z,26.30
2018-07-21T20:03:45.188Z,26.40
2018-07-21T20:06:14.591Z,26.30
2018-07-21T20:08:44.008Z,26.30
2018-07-21T20:11:13.481Z,26.30
2018-07-21T20:13:42.930Z,26.30
2018-07-21T20:16:12.306Z,26.20
2018-07-21T20:18:41.834Z,26.30
2018-07-21T20:21:11.298Z,26.30
2018-07-21T20:26:16.005Z,26.30
2018-07-21T20:28:45.472Z,26.30
2018-07-21T20:31:14.982Z,26.30
2018-07-21T20:33:44.461Z,26.30
2018-07-21T20:36:13.896Z,26.30
2018-07-21T20:38:43.275Z,26.30
2018-07-21T20:41:12.807Z,26.30
2018-07-21T20:43:42.291Z,26.20
2018-07-21T20:46:11.751Z,26.20
2018-07-21T20:51:10.150Z,26.30
2018-07-21T20:53:39.540Z,26.20
2018-07-21T20:56:08.937Z,26.30
2018-07-21T20:58:38.329Z,26.30
2018-07-21T21:01:07.868Z,26.30
2018-07-21T21:03:37.533Z,26.30
2018-07-21T21:06:07.009Z,26.20
2018-07-21T21:08:36.399Z,26.20
2018-07-21T21:11:05.801Z,26.20
2018-07-21T21:13:35.263Z,26.10
2018-07-21T21:16:04.630Z,26.10
2018-07-21T21:18:34.065Z,26.10
2018-07-21T21:21:03.961Z,26.10
2018-07-21T21:23:33.443Z,26.10
2018-07-21T21:26:02.923Z,26.10
2018-07-21T21:28:32.347Z,26.10
2018-07-21T21:31:01.749Z,26.10
2018-07-21T21:33:31.214Z,26.10
2018-07-21T21:36:00.738Z,26.10
